createdAt,value
2022-12-09T00:02:07.718Z,98162.44
2022-12-09T00:04:36.142Z,98121.69
2022-12-09T00:09:37.194Z,98135.53
2022-12-09T00:12:08.910Z,98141.75
2022-12-09T00:14:37.114Z,98158.31
2022-12-09T00:17:05.536Z,98152.22
2022-12-09T00:19:34.837Z,98148.75
2022-12-09T00:22:04.918Z,98146.09
2022-12-09T00:27:02.665Z,98138.19
2022-12-09T00:29:33.343Z,98130.28
2022-12-09T00:32:01.417Z,98140.69
2022-12-09T00:34:29.890Z,98146.63
2022-12-09T00:36:57.902Z,98142.59
2022-12-09T00:39:26.426Z,98136.44
2022-12-09T00:41:54.531Z,98107.72
2022-12-09T00:44:22.470Z,98109.63
2022-12-09T00:46:51.729Z,98105.06
2022-12-09T00:49:19.813Z,98111.00
2022-12-09T00:51:47.422Z,98103.31
2022-12-09T00:54:15.226Z,98117.06
2022-12-09T00:56:43.600Z,98116.97
2022-12-09T00:59:13.980Z,98103.88
2022-12-09T01:01:42.767Z,98129.53
2022-12-09T01:04:12.107Z,98101.50
2022-12-09T01:06:39.776Z,98092.31
2022-12-09T01:09:08.045Z,98127.19
2022-12-09T01:11:36.634Z,98122.81
2022-12-09T01:14:04.705Z,98102.72
2022-12-09T01:16:34.392Z,98093.91
2022-12-09T01:19:04.235Z,98107.78
2022-12-09T01:21:34.274Z,98098.34
2022-12-09T01:24:02.197Z,98135.81
2022-12-09T01:26:30.006Z,98127.13
2022-12-09T01:28:57.856Z,98102.53
2022-12-09T01:31:26.601Z,98139.41
2022-12-09T01:33:56.177Z,98103.31
2022-12-09T01:36:24.108Z,98138.53
2022-12-09T01:41:45.988Z,98137.47
2022-12-09T01:44:19.104Z,98125.25
2022-12-09T01:46:47.184Z,98121.84
2022-12-09T01:49:18.980Z,98128.63
2022-12-09T01:51:49.759Z,98126.91
2022-12-09T01:54:18.386Z,98125.47
2022-12-09T01:56:47.672Z,98115.25
2022-12-09T01:59:16.650Z,98116.97
2022-12-09T02:01:47.785Z,98083.44
2022-12-09T02:06:43.525Z,98117.47
2022-12-09T02:12:02.441Z,98105.38
2022-12-09T02:14:32.637Z,98105.59
2022-12-09T02:19:30.715Z,98101.41
2022-12-09T02:27:09.412Z,98047.53
2022-12-09T02:32:35.056Z,98084.44
2022-12-09T02:35:08.988Z,98061.59
2022-12-09T02:37:41.047Z,98088.16
2022-12-09T02:40:13.076Z,98044.94
2022-12-09T02:42:41.251Z,98056.06
2022-12-09T02:45:11.242Z,98028.94
2022-12-09T02:47:41.936Z,98059.69
2022-12-09T02:50:17.928Z,98077.88
2022-12-09T02:52:47.276Z,98069.03
2022-12-09T02:55:17.779Z,98031.31
2022-12-09T02:57:46.104Z,98055.63
2022-12-09T03:00:16.981Z,98031.03
2022-12-09T03:02:47.829Z,98056.69
2022-12-09T03:05:23.200Z,98052.22
2022-12-09T03:07:57.696Z,98056.16
2022-12-09T03:10:29.263Z,98028.94
2022-12-09T03:13:01.339Z,98037.19
2022-12-09T03:15:32.286Z,98034.97
2022-12-09T03:18:02.554Z,98041.22
2022-12-09T03:20:32.328Z,98044.59
2022-12-09T03:23:02.123Z,98040.28
2022-12-09T03:25:33.058Z,98034.00
2022-12-09T03:28:04.869Z,98033.19
2022-12-09T03:30:34.976Z,98022.84
2022-12-09T03:33:03.877Z,98029.63
2022-12-09T03:35:35.023Z,98033.22
2022-12-09T03:38:04.912Z,98032.16
2022-12-09T03:40:33.776Z,98026.16
2022-12-09T03:43:03.960Z,98023.78
2022-12-09T03:45:32.415Z,98021.78
2022-12-09T03:48:00.640Z,98021.88
2022-12-09T03:50:30.654Z,98027.81
2022-12-09T03:53:02.697Z,98029.38
2022-12-09T03:55:34.996Z,98026.03
2022-12-09T03:58:04.412Z,98037.56
2022-12-09T04:00:33.195Z,98037.56
2022-12-09T04:03:01.756Z,98030.56
2022-12-09T04:05:31.370Z,98033.28
2022-12-09T04:10:28.314Z,98002.47
2022-12-09T04:12:56.424Z,98027.88
2022-12-09T04:15:24.287Z,98017.50
2022-12-09T04:17:52.205Z,98023.50
2022-12-09T04:20:20.087Z,98032.16
2022-12-09T04:22:47.998Z,98027.00
2022-12-09T04:25:15.787Z,98014.13
2022-12-09T04:27:44.958Z,98022.75
2022-12-09T04:30:13.519Z,98019.28
2022-12-09T04:32:41.572Z,98026.72
2022-12-09T04:35:09.979Z,98013.75
2022-12-09T04:37:37.985Z,98006.97
2022-12-09T04:40:07.062Z,98017.09
2022-12-09T04:42:35.351Z,98011.94
2022-12-09T04:45:04.784Z,98015.38
2022-12-09T04:47:34.421Z,98011.88
2022-12-09T04:50:02.339Z,98012.75
2022-12-09T04:52:30.200Z,98005.06
2022-12-09T04:54:58.008Z,97992.13
2022-12-09T04:57:25.722Z,98007.59
2022-12-09T04:59:53.652Z,98000.81
2022-12-09T05:02:23.181Z,98010.09
2022-12-09T05:04:51.513Z,98007.56
2022-12-09T05:07:19.539Z,98006.81
2022-12-09T05:09:48.028Z,98003.38
2022-12-09T05:12:15.892Z,97999.84
2022-12-09T05:14:43.748Z,97994.69
2022-12-09T05:17:11.639Z,97997.13
2022-12-09T05:19:41.049Z,97994.81
2022-12-09T05:22:09.080Z,97995.72
2022-12-09T05:24:37.102Z,97984.50
2022-12-09T05:27:04.905Z,97987.88
2022-12-09T05:29:32.643Z,97979.31
2022-12-09T05:32:00.844Z,97991.41
2022-12-09T05:34:29.139Z,97984.47
2022-12-09T05:36:58.435Z,97985.47
2022-12-09T05:39:26.203Z,97971.59
2022-12-09T05:41:53.920Z,97980.91
2022-12-09T05:44:22.038Z,97968.13
2022-12-09T05:46:49.901Z,97958.13
2022-12-09T05:49:17.744Z,97968.75
2022-12-09T05:51:46.029Z,97971.31
2022-12-09T05:54:15.109Z,97966.50
2022-12-09T05:56:47.908Z,97965.22
2022-12-09T05:59:16.457Z,97961.28
2022-12-09T06:01:44.605Z,97958.66
2022-12-09T06:04:12.769Z,97959.94
2022-12-09T06:06:40.649Z,97964.78
2022-12-09T06:09:11.565Z,97956.47
2022-12-09T06:11:41.864Z,97942.28
2022-12-09T06:14:10.325Z,97968.00
2022-12-09T06:16:38.918Z,97969.78
2022-12-09T06:19:06.964Z,97959.44
2022-12-09T06:21:34.761Z,97965.28
2022-12-09T06:24:02.571Z,97955.06
2022-12-09T06:26:31.312Z,97973.19
2022-12-09T06:29:00.590Z,97961.22
2022-12-09T06:31:29.964Z,97972.00
2022-12-09T06:33:59.640Z,97972.22
2022-12-09T06:36:29.175Z,97968.59
2022-12-09T06:38:58.814Z,97931.31
2022-12-09T06:41:28.860Z,97970.41
2022-12-09T06:43:58.345Z,97941.75
2022-12-09T06:46:29.480Z,97971.13
2022-12-09T06:48:57.965Z,97967.56
2022-12-09T06:51:26.944Z,97967.06
2022-12-09T06:53:55.320Z,97962.66
2022-12-09T06:56:24.118Z,97971.66
2022-12-09T06:58:52.051Z,97971.53
2022-12-09T07:01:21.814Z,97960.09
2022-12-09T07:03:53.575Z,97950.06
2022-12-09T07:06:26.800Z,97975.13
2022-12-09T07:08:55.586Z,97976.59
2022-12-09T07:11:23.620Z,97975.66
2022-12-09T07:13:51.694Z,97976.53
2022-12-09T07:16:20.092Z,97974.84
2022-12-09T07:18:48.010Z,97984.56
2022-12-09T07:21:19.487Z,97980.25
2022-12-09T07:23:47.893Z,97971.41
2022-12-09T07:26:16.953Z,97954.34
2022-12-09T07:28:47.294Z,97973.28
2022-12-09T07:31:20.258Z,97982.56
2022-12-09T07:33:48.423Z,97954.47
2022-12-09T07:36:21.203Z,97977.34
2022-12-09T07:38:49.669Z,97974.84
2022-12-09T07:41:19.408Z,97966.94
2022-12-09T07:43:48.159Z,97964.63
2022-12-09T07:46:30.791Z,97966.25
2022-12-09T07:48:59.497Z,97973.09
2022-12-09T07:51:29.586Z,97976.72
2022-12-09T07:53:57.964Z,97929.75
2022-12-09T07:56:27.643Z,97965.25
2022-12-09T07:58:57.296Z,97964.75
2022-12-09T08:01:27.840Z,97957.88
2022-12-09T08:03:55.886Z,97962.09
2022-12-09T08:06:26.288Z,97959.47
2022-12-09T08:08:59.653Z,97969.75
2022-12-09T08:11:29.364Z,97959.41
2022-12-09T08:13:58.340Z,97954.22
2022-12-09T08:16:26.784Z,97955.38
2022-12-09T08:18:55.530Z,97952.84
2022-12-09T08:21:25.072Z,97956.19
2022-12-09T08:23:54.296Z,97963.09
2022-12-09T08:26:25.000Z,97960.25
2022-12-09T08:28:53.360Z,97952.63
2022-12-09T08:31:23.433Z,97954.50
2022-12-09T08:33:52.440Z,97957.78
2022-12-09T08:36:22.321Z,97945.69
2022-12-09T08:38:50.415Z,97952.78
2022-12-09T08:41:35.980Z,97958.03
2022-12-09T08:44:06.354Z,97946.81
2022-12-09T08:46:35.430Z,97947.81
2022-12-09T08:49:03.741Z,97945.88
2022-12-09T08:51:31.962Z,97944.84
2022-12-09T08:54:00.646Z,97941.91
2022-12-09T08:56:30.823Z,97951.91
2022-12-09T08:58:58.800Z,97944.38
2022-12-09T09:01:32.645Z,97946.38
2022-12-09T09:04:01.802Z,97945.22
2022-12-09T09:06:30.471Z,97942.94
2022-12-09T09:08:59.386Z,97941.13
2022-12-09T09:11:28.972Z,97936.13
2022-12-09T09:13:57.720Z,97936.16
2022-12-09T09:16:28.204Z,97936.13
2022-12-09T09:18:56.471Z,97941.31
2022-12-09T09:21:26.849Z,97941.91
2022-12-09T09:23:54.819Z,97946.06
2022-12-09T09:26:25.450Z,97943.53
2022-12-09T09:28:55.114Z,97944.38
2022-12-09T09:31:24.409Z,97943.44
2022-12-09T09:33:53.123Z,97935.09
2022-12-09T09:36:23.828Z,97944.19
2022-12-09T09:38:55.041Z,97933.63
2022-12-09T09:41:28.652Z,97947.31
2022-12-09T09:43:58.266Z,97935.75
2022-12-09T09:46:34.470Z,97939.06
2022-12-09T09:49:03.912Z,97937.16
2022-12-09T09:51:33.699Z,97926.81
2022-12-09T09:54:08.957Z,97931.66
2022-12-09T09:56:43.209Z,97928.72
2022-12-09T09:59:21.623Z,97933.78
2022-12-09T10:01:58.174Z,97933.09
2022-12-09T10:04:31.578Z,97929.91
2022-12-09T10:07:07.099Z,97918.47
2022-12-09T10:09:50.854Z,97889.47
2022-12-09T10:12:26.258Z,97885.00
2022-12-09T10:14:59.101Z,97923.63
2022-12-09T10:17:29.625Z,97921.94
2022-12-09T10:20:00.198Z,97922.13
2022-12-09T10:22:30.764Z,97924.06
2022-12-09T10:25:00.171Z,97925.00
2022-12-09T10:27:31.419Z,97929.66
2022-12-09T10:30:02.592Z,97912.59
2022-12-09T10:32:32.421Z,97923.63
2022-12-09T10:35:01.454Z,97932.31
2022-12-09T10:37:32.210Z,97932.66
2022-12-09T10:40:07.891Z,97921.44
2022-12-09T10:43:00.712Z,97926.16
2022-12-09T10:45:52.647Z,97928.25
2022-12-09T10:48:23.481Z,97923.81
2022-12-09T10:50:56.797Z,97935.81
2022-12-09T10:53:25.924Z,97926.81
2022-12-09T10:55:56.125Z,97925.34
2022-12-09T10:58:26.267Z,97915.00
2022-12-09T11:01:11.304Z,97913.94
2022-12-09T11:03:41.669Z,97912.50
2022-12-09T11:06:23.244Z,97910.84
2022-12-09T11:08:53.513Z,97898.09
2022-12-09T11:11:21.706Z,97917.69
2022-12-09T11:13:49.428Z,97906.25
2022-12-09T11:16:27.919Z,97900.47
2022-12-09T11:18:56.195Z,97895.81
2022-12-09T11:21:35.085Z,97893.25
2022-12-09T11:24:04.699Z,97899.34
2022-12-09T11:26:36.566Z,97894.63
2022-12-09T11:29:08.181Z,97899.66
2022-12-09T11:31:40.253Z,97893.34
2022-12-09T11:34:17.228Z,97895.31
2022-12-09T11:36:49.242Z,97883.13
2022-12-09T11:39:26.672Z,97885.44
2022-12-09T11:42:16.955Z,97882.03
2022-12-09T11:44:56.578Z,97873.50
2022-12-09T11:47:36.500Z,97876.75
2022-12-09T11:50:19.098Z,97872.34
2022-12-09T11:52:47.288Z,97860.19
2022-12-09T11:55:18.247Z,97871.06
2022-12-09T11:57:49.640Z,97864.88
2022-12-09T12:00:20.135Z,97866.34
2022-12-09T12:02:54.332Z,97863.94
2022-12-09T12:05:24.343Z,97858.97
2022-12-09T12:08:01.611Z,97849.00
2022-12-09T12:10:32.760Z,97845.63
2022-12-09T12:13:05.383Z,97855.31
2022-12-09T12:15:48.467Z,97851.38
2022-12-09T12:18:20.004Z,97858.00
2022-12-09T12:21:04.602Z,97862.72
2022-12-09T12:23:45.286Z,97848.44
2022-12-09T12:26:16.922Z,97859.41
2022-12-09T12:29:00.163Z,97859.41
2022-12-09T12:31:45.915Z,97853.50
2022-12-09T12:34:26.730Z,97851.38
2022-12-09T12:37:00.370Z,97845.88
2022-12-09T12:39:37.591Z,97838.19
2022-12-09T12:42:25.514Z,97855.31
2022-12-09T12:45:19.105Z,97850.03
2022-12-09T12:47:52.924Z,97831.28
2022-12-09T12:50:33.160Z,97849.19
2022-12-09T12:53:06.723Z,97838.72
2022-12-09T12:55:46.605Z,97838.25
2022-12-09T12:58:20.383Z,97841.53
2022-12-09T13:01:01.175Z,97838.53
2022-12-09T13:03:36.921Z,97826.69
2022-12-09T13:06:06.163Z,97841.59
2022-12-09T13:08:36.720Z,97835.72
2022-12-09T13:11:09.130Z,97833.38
2022-12-09T13:13:39.722Z,97836.13
2022-12-09T13:16:11.293Z,97797.50
2022-12-09T13:18:39.889Z,97829.84
2022-12-09T13:21:09.799Z,97843.66
2022-12-09T13:23:50.530Z,97838.72
2022-12-09T13:26:26.609Z,97838.97
2022-12-09T13:28:59.182Z,97827.09
2022-12-09T13:31:30.127Z,97807.44
2022-12-09T13:34:05.261Z,97806.75
2022-12-09T13:36:39.163Z,97799.91
2022-12-09T13:39:10.913Z,97833.94
2022-12-09T13:42:01.246Z,97806.16
2022-12-09T13:44:35.391Z,97827.91
2022-12-09T13:47:27.416Z,97808.44
2022-12-09T13:49:58.922Z,97784.34
2022-12-09T13:52:49.459Z,97818.44
2022-12-09T13:55:49.438Z,97800.13
2022-12-09T13:58:38.020Z,97788.53
2022-12-09T14:01:13.775Z,97821.03
2022-12-09T14:03:49.469Z,97797.50
2022-12-09T14:06:22.183Z,97822.72
2022-12-09T14:08:54.702Z,97813.97
2022-12-09T14:11:42.671Z,97828.84
2022-12-09T14:14:58.908Z,97840.03
2022-12-09T14:18:01.226Z,97845.28
2022-12-09T14:20:31.803Z,97842.16
2022-12-09T14:23:19.482Z,97842.56
2022-12-09T14:26:05.090Z,97841.66
2022-12-09T14:29:01.041Z,97838.25
2022-12-09T14:32:05.660Z,97843.66
2022-12-09T14:34:36.760Z,97845.94
2022-12-09T14:37:16.116Z,97846.13
2022-12-09T14:39:47.430Z,97852.59
2022-12-09T14:42:26.823Z,97850.16
2022-12-09T14:44:58.776Z,97852.88
2022-12-09T14:47:29.867Z,97851.28
2022-12-09T14:50:07.344Z,97856.59
2022-12-09T14:52:35.471Z,97873.03
2022-12-09T14:55:06.160Z,97841.34
2022-12-09T14:57:38.333Z,97865.25
2022-12-09T15:00:07.936Z,97861.44
2022-12-09T15:02:35.890Z,97867.59
2022-12-09T15:05:03.946Z,97871.16
2022-12-09T15:07:32.507Z,97874.84
2022-12-09T15:10:02.265Z,97868.97
2022-12-09T15:12:32.355Z,97875.94
2022-12-09T15:15:09.713Z,97864.84
2022-12-09T15:17:43.186Z,97877.69
2022-12-09T15:20:22.514Z,97877.13
2022-12-09T15:22:52.829Z,97875.19
2022-12-09T15:25:21.885Z,97870.41
2022-12-09T15:27:56.887Z,97864.56
2022-12-09T15:30:29.517Z,97878.16
2022-12-09T15:32:57.130Z,97875.56
2022-12-09T15:35:26.623Z,97874.28
2022-12-09T15:37:56.437Z,97883.47
2022-12-09T15:40:29.026Z,97881.00
2022-12-09T15:42:59.927Z,97875.31
2022-12-09T15:45:30.874Z,97880.31
2022-12-09T15:48:02.140Z,97887.38
2022-12-09T15:50:32.416Z,97886.75
2022-12-09T15:53:06.183Z,97887.59
2022-12-09T15:55:37.685Z,97876.03
2022-12-09T15:58:06.989Z,97879.09
2022-12-09T16:00:40.323Z,97882.56
2022-12-09T16:03:08.630Z,97893.75
2022-12-09T16:05:41.860Z,97897.66
2022-12-09T16:08:10.496Z,97892.88
2022-12-09T16:10:47.068Z,97893.72
2022-12-09T16:13:15.981Z,97887.81
2022-12-09T16:15:48.253Z,97897.13
2022-12-09T16:18:25.462Z,97890.47
2022-12-09T16:21:02.717Z,97868.59
2022-12-09T16:23:30.447Z,97907.13
2022-12-09T16:26:07.058Z,97898.28
2022-12-09T16:28:35.538Z,97905.22
2022-12-09T16:31:05.874Z,97906.13
2022-12-09T16:33:35.958Z,97902.78
2022-12-09T16:36:05.794Z,97906.34
2022-12-09T16:38:34.812Z,97908.69
2022-12-09T16:41:08.558Z,97905.50
2022-12-09T16:43:37.037Z,97899.47
2022-12-09T16:46:33.590Z,97906.22
2022-12-09T16:49:05.022Z,97900.16
2022-12-09T16:51:32.980Z,97904.53
2022-12-09T16:54:00.954Z,97902.72
2022-12-09T16:56:30.150Z,97896.59
2022-12-09T16:58:59.170Z,97900.06
2022-12-09T17:01:31.775Z,97903.59
2022-12-09T17:04:04.180Z,97891.69
2022-12-09T17:06:34.155Z,97901.81
2022-12-09T17:09:01.768Z,97900.28
2022-12-09T17:11:29.346Z,97903.88
2022-12-09T17:13:56.979Z,97898.59
2022-12-09T17:16:26.614Z,97897.75
2022-12-09T17:18:54.509Z,97903.72
2022-12-09T17:21:23.611Z,97904.91
2022-12-09T17:23:51.311Z,97908.34
2022-12-09T17:26:20.356Z,97894.38
2022-12-09T17:28:48.655Z,97899.59
2022-12-09T17:31:19.780Z,97904.78
2022-12-09T17:33:47.430Z,97919.44
2022-12-09T17:36:15.867Z,97915.44
2022-12-09T17:38:44.996Z,97918.72
2022-12-09T17:41:15.993Z,97922.28
2022-12-09T17:43:43.785Z,97927.53
2022-12-09T17:46:13.000Z,97931.09
2022-12-09T17:48:41.684Z,97940.50
2022-12-09T17:51:10.852Z,97935.06
2022-12-09T17:53:39.203Z,97927.53
2022-12-09T17:56:09.922Z,97938.50
2022-12-09T17:58:38.206Z,97946.41
2022-12-09T18:01:06.097Z,97945.47
2022-12-09T18:03:54.852Z,97942.16
2022-12-09T18:06:21.291Z,97899.69
2022-12-09T18:08:48.977Z,97887.75
2022-12-09T18:11:17.966Z,97949.06
2022-12-09T18:13:46.616Z,97937.13
2022-12-09T18:16:15.132Z,97954.91
2022-12-09T18:18:43.589Z,97953.97
2022-12-09T18:21:15.941Z,97955.66
2022-12-09T18:23:44.701Z,97956.63
2022-12-09T18:26:14.771Z,97952.47
2022-12-09T18:28:44.402Z,97929.50
2022-12-09T18:31:15.366Z,97962.84
2022-12-09T18:33:43.915Z,97957.59
2022-12-09T18:36:13.398Z,97957.66
2022-12-09T18:38:41.553Z,97943.94
2022-12-09T18:41:11.740Z,97950.06
2022-12-09T18:43:41.191Z,97953.34
2022-12-09T18:46:12.424Z,97954.91
2022-12-09T18:48:40.502Z,97956.72
2022-12-09T18:51:15.519Z,97951.44
2022-12-09T18:53:43.224Z,97966.09
2022-12-09T18:56:11.425Z,97944.41
2022-12-09T18:59:04.936Z,97971.56
2022-12-09T19:01:31.193Z,97974.06
2022-12-09T19:04:01.110Z,97974.81
2022-12-09T19:06:30.549Z,97942.38
2022-12-09T19:09:00.246Z,97968.31
2022-12-09T19:11:29.876Z,97971.53
2022-12-09T19:13:57.923Z,97967.25
2022-12-09T19:16:26.815Z,97968.25
2022-12-09T19:18:56.367Z,97973.34
2022-12-09T19:21:25.528Z,97983.47
2022-12-09T19:23:53.424Z,97981.78
2022-12-09T19:26:24.853Z,97990.22
2022-12-09T19:28:53.930Z,97986.78
2022-12-09T19:31:23.745Z,97978.91
2022-12-09T19:33:57.033Z,97984.97
2022-12-09T19:36:25.263Z,97973.81
2022-12-09T19:38:53.227Z,97969.63
2022-12-09T19:41:21.059Z,97986.84
2022-12-09T19:43:48.919Z,97990.22
2022-12-09T19:46:16.779Z,97988.63
2022-12-09T19:48:45.239Z,97964.78
2022-12-09T19:51:16.283Z,97989.44
2022-12-09T19:53:44.729Z,97992.06
2022-12-09T19:56:15.356Z,97993.03
2022-12-09T19:58:43.853Z,97998.47
2022-12-09T20:01:12.498Z,97970.16
2022-12-09T20:03:41.523Z,98003.38
2022-12-09T20:06:10.623Z,98002.69
2022-12-09T20:08:40.098Z,97998.31
2022-12-09T20:11:12.667Z,97998.31
2022-12-09T20:13:40.606Z,97994.63
2022-12-09T20:16:09.814Z,97961.19
2022-12-09T20:18:40.447Z,97981.53
2022-12-09T20:21:09.748Z,98004.38
2022-12-09T20:23:40.014Z,98000.31
2022-12-09T20:26:09.608Z,97993.44
2022-12-09T20:28:37.754Z,98004.63
2022-12-09T20:31:06.951Z,97991.31
2022-12-09T20:33:34.865Z,98002.66
2022-12-09T20:36:07.117Z,98001.88
2022-12-09T20:38:35.973Z,97989.09
2022-12-09T20:41:06.917Z,97993.63
2022-12-09T20:43:39.476Z,98011.53
2022-12-09T20:46:09.888Z,98016.56
2022-12-09T20:48:39.966Z,98019.13
2022-12-09T20:51:11.313Z,98024.31
2022-12-09T20:53:39.499Z,98029.66
2022-12-09T20:56:09.458Z,98028.00
2022-12-09T20:58:37.617Z,98009.97
2022-12-09T21:01:06.744Z,97981.97
2022-12-09T21:03:34.692Z,98023.56
2022-12-09T21:06:02.649Z,98008.75
2022-12-09T21:08:32.183Z,98013.13
2022-12-09T21:11:04.409Z,98016.75
2022-12-09T21:13:33.473Z,98008.34
2022-12-09T21:16:05.808Z,98027.16
2022-12-09T21:18:33.613Z,98030.59
2022-12-09T21:21:01.256Z,98027.94
2022-12-09T21:23:36.325Z,98034.03
2022-12-09T21:26:05.874Z,98025.47
2022-12-09T21:28:36.198Z,98021.94
2022-12-09T21:31:08.563Z,98026.97
2022-12-09T21:33:36.436Z,98026.41
2022-12-09T21:36:06.614Z,98027.34
2022-12-09T21:38:34.551Z,98026.41
2022-12-09T21:41:04.619Z,98022.16
2022-12-09T21:43:32.803Z,98037.66
2022-12-09T21:46:04.408Z,98041.84
2022-12-09T21:48:32.752Z,98038.41
2022-12-09T21:51:01.449Z,97991.31
2022-12-09T21:53:29.422Z,98042.81
2022-12-09T21:56:02.443Z,98032.34
2022-12-09T21:58:31.165Z,98018.09
2022-12-09T22:00:59.203Z,98040.22
2022-12-09T22:03:28.457Z,98031.75
2022-12-09T22:05:58.398Z,98036.78
2022-12-09T22:08:26.198Z,98048.13
2022-12-09T22:10:53.903Z,98032.75
2022-12-09T22:13:22.671Z,98038.94
2022-12-09T22:15:50.356Z,98044.38
2022-12-09T22:18:18.047Z,98012.00
2022-12-09T22:21:23.052Z,98046.94
2022-12-09T22:23:35.585Z,98042.59
2022-12-09T22:26:06.108Z,98044.63
2022-12-09T22:28:33.728Z,98043.47
2022-12-09T22:31:01.970Z,98040.75
2022-12-09T22:33:30.041Z,98042.81
2022-12-09T22:36:04.771Z,98049.47
2022-12-09T22:38:32.617Z,98051.28
2022-12-09T22:41:03.957Z,98053.03
2022-12-09T22:43:37.740Z,98048.81
2022-12-09T22:46:06.500Z,98046.22
2022-12-09T22:48:35.200Z,98049.19
2022-12-09T22:51:05.449Z,98046.78
2022-12-09T22:53:33.158Z,98057.16
2022-12-09T22:56:01.369Z,98057.38
2022-12-09T22:58:29.153Z,98053.78
2022-12-09T23:00:58.385Z,98061.44
2022-12-09T23:03:26.032Z,98049.50
2022-12-09T23:05:55.189Z,98058.16
2022-12-09T23:08:24.336Z,98052.13
2022-12-09T23:10:52.382Z,98038.63
2022-12-09T23:13:20.082Z,98051.16
2022-12-09T23:15:47.786Z,98051.34
2022-12-09T23:18:15.582Z,98056.06
2022-12-09T23:20:43.609Z,98057.25
2022-12-09T23:23:11.224Z,98058.03
2022-12-09T23:25:40.146Z,98058.97
2022-12-09T23:28:07.805Z,98066.75
2022-12-09T23:30:35.487Z,98065.88
2022-12-09T23:33:03.101Z,98068.47
2022-12-09T23:35:30.926Z,98063.47
2022-12-09T23:37:58.780Z,98072.78
2022-12-09T23:40:26.378Z,98064.38
2022-12-09T23:42:55.319Z,98068.53
2022-12-09T23:45:23.017Z,98052.25
2022-12-09T23:47:51.019Z,98065.19
2022-12-09T23:50:19.714Z,98058.09
2022-12-09T23:52:47.265Z,98058.03
2022-12-09T23:55:15.060Z,98061.56
2022-12-09T23:57:42.659Z,98055.63
